sensor_id;sensor_type;location;lat;lon;timestamp;P1;durP1;ratioP1;P2;durP2;ratioP2
74177;SDS011;62540;48.456;-4.456;2022-08-02T00:02:08;1.00;;;1.00;;
74177;SDS011;62540;48.456;-4.456;2022-08-02T00:04:34;0.00;;;0.00;;
74177;SDS011;62540;48.456;-4.456;2022-08-02T00:06:59;0.00;;;0.00;;
74177;SDS011;62540;48.456;-4.456;2022-08-02T00:09:24;0.50;;;0.50;;
74177;SDS011;62540;48.456;-4.456;2022-08-02T00:11:50;0.00;;;0.00;;
74177;SDS011;62540;48.456;-4.456;2022-08-02T00:14:16;0.00;;;0.00;;
74177;SDS011;62540;48.456;-4.456;2022-08-02T00:16:41;0.00;;;0.00;;
74177;SDS011;62540;48.456;-4.456;2022-08-02T00:19:07;0.00;;;0.00;;
74177;SDS011;62540;48.456;-4.456;2022-08-02T00:21:32;0.00;;;0.00;;
74177;SDS011;62540;48.456;-4.456;2022-08-02T00:23:58;0.75;;;0.75;;
74177;SDS011;62540;48.456;-4.456;2022-08-02T00:26:23;0.00;;;0.00;;
74177;SDS011;62540;48.456;-4.456;2022-08-02T00:28:49;0.00;;;0.00;;
74177;SDS011;62540;48.456;-4.456;2022-08-02T00:31:14;0.00;;;0.00;;
74177;SDS011;62540;48.456;-4.456;2022-08-02T00:33:39;0.00;;;0.00;;
74177;SDS011;62540;48.456;-4.456;2022-08-02T00:36:05;0.00;;;0.00;;
74177;SDS011;62540;48.456;-4.456;2022-08-02T00:38:30;0.00;;;0.00;;
74177;SDS011;62540;48.456;-4.456;2022-08-02T00:40:56;0.00;;;0.00;;
74177;SDS011;62540;48.456;-4.456;2022-08-02T00:43:21;0.00;;;0.00;;
74177;SDS011;62540;48.456;-4.456;2022-08-02T00:45:47;0.00;;;0.00;;
74177;SDS011;62540;48.456;-4.456;2022-08-02T00:48:12;0.00;;;0.00;;
74177;SDS011;62540;48.456;-4.456;2022-08-02T00:50:38;0.00;;;0.00;;
74177;SDS011;62540;48.456;-4.456;2022-08-02T00:53:05;0.25;;;0.00;;
74177;SDS011;62540;48.456;-4.456;2022-08-02T00:55:33;0.50;;;0.00;;
74177;SDS011;62540;48.456;-4.456;2022-08-02T00:57:59;0.00;;;0.00;;
74177;SDS011;62540;48.456;-4.456;2022-08-02T01:00:25;0.00;;;0.00;;
74177;SDS011;62540;48.456;-4.456;2022-08-02T01:02:50;0.25;;;0.25;;
74177;SDS011;62540;48.456;-4.456;2022-08-02T01:05:16;0.75;;;0.00;;
74177;SDS011;62540;48.456;-4.456;2022-08-02T01:07:41;0.50;;;0.50;;
74177;SDS011;62540;48.456;-4.456;2022-08-02T01:10:07;3.00;;;1.00;;
74177;SDS011;62540;48.456;-4.456;2022-08-02T01:12:33;2.00;;;1.25;;
74177;SDS011;62540;48.456;-4.456;2022-08-02T01:15:06;1.00;;;1.00;;
74177;SDS011;62540;48.456;-4.456;2022-08-02T01:31:26;3.00;;;3.00;;
74177;SDS011;62540;48.456;-4.456;2022-08-02T01:36:40;2.00;;;2.00;;
74177;SDS011;62540;48.456;-4.456;2022-08-02T01:39:10;2.25;;;0.75;;
74177;SDS011;62540;48.456;-4.456;2022-08-02T01:41:38;2.00;;;2.00;;
74177;SDS011;62540;48.456;-4.456;2022-08-02T01:44:06;1.00;;;1.00;;
74177;SDS011;62540;48.456;-4.456;2022-08-02T01:46:34;1.00;;;1.00;;
74177;SDS011;62540;48.456;-4.456;2022-08-02T01:49:05;2.25;;;1.75;;
74177;SDS011;62540;48.456;-4.456;2022-08-02T01:51:34;2.00;;;1.25;;
74177;SDS011;62540;48.456;-4.456;2022-08-02T01:54:21;1.00;;;0.00;;
74177;SDS011;62540;48.456;-4.456;2022-08-02T01:56:48;0.00;;;0.00;;
74177;SDS011;62540;48.456;-4.456;2022-08-02T01:59:17;2.00;;;1.00;;
74177;SDS011;62540;48.456;-4.456;2022-08-02T02:01:46;2.00;;;2.00;;
74177;SDS011;62540;48.456;-4.456;2022-08-02T02:04:13;1.50;;;1.00;;
74177;SDS011;62540;48.456;-4.456;2022-08-02T02:06:39;1.00;;;1.00;;
74177;SDS011;62540;48.456;-4.456;2022-08-02T02:09:09;1.00;;;1.00;;
74177;SDS011;62540;48.456;-4.456;2022-08-02T02:11:37;1.00;;;0.00;;
74177;SDS011;62540;48.456;-4.456;2022-08-02T02:14:07;1.50;;;1.50;;
74177;SDS011;62540;48.456;-4.456;2022-08-02T02:16:35;1.00;;;1.00;;
74177;SDS011;62540;48.456;-4.456;2022-08-02T02:19:02;4.00;;;2.00;;
74177;SDS011;62540;48.456;-4.456;2022-08-02T02:21:29;0.00;;;0.00;;
74177;SDS011;62540;48.456;-4.456;2022-08-02T02:23:54;1.25;;;0.75;;
74177;SDS011;62540;48.456;-4.456;2022-08-02T02:26:20;2.00;;;1.50;;
74177;SDS011;62540;48.456;-4.456;2022-08-02T02:28:47;1.00;;;1.00;;
74177;SDS011;62540;48.456;-4.456;2022-08-02T02:31:15;0.50;;;0.00;;
74177;SDS011;62540;48.456;-4.456;2022-08-02T02:33:48;1.00;;;1.00;;
74177;SDS011;62540;48.456;-4.456;2022-08-02T02:36:16;0.25;;;0.25;;
74177;SDS011;62540;48.456;-4.456;2022-08-02T02:38:43;1.00;;;1.00;;
74177;SDS011;62540;48.456;-4.456;2022-08-02T02:41:11;0.50;;;0.00;;
74177;SDS011;62540;48.456;-4.456;2022-08-02T02:43:37;0.00;;;0.00;;
74177;SDS011;62540;48.456;-4.456;2022-08-02T02:46:05;1.25;;;1.00;;
74177;SDS011;62540;48.456;-4.456;2022-08-02T02:48:33;1.00;;;1.00;;
74177;SDS011;62540;48.456;-4.456;2022-08-02T02:51:00;0.00;;;0.00;;
74177;SDS011;62540;48.456;-4.456;2022-08-02T02:53:29;0.50;;;0.00;;
74177;SDS011;62540;48.456;-4.456;2022-08-02T02:55:56;1.00;;;1.00;;
74177;SDS011;62540;48.456;-4.456;2022-08-02T02:58:22;1.00;;;0.00;;
74177;SDS011;62540;48.456;-4.456;2022-08-02T03:00:49;0.00;;;0.00;;
74177;SDS011;62540;48.456;-4.456;2022-08-02T03:03:34;1.75;;;0.00;;
74177;SDS011;62540;48.456;-4.456;2022-08-02T03:06:01;0.00;;;0.00;;
74177;SDS011;62540;48.456;-4.456;2022-08-02T03:08:27;0.00;;;0.00;;
74177;SDS011;62540;48.456;-4.456;2022-08-02T03:10:53;0.00;;;0.00;;
74177;SDS011;62540;48.456;-4.456;2022-08-02T03:13:19;0.50;;;0.25;;
74177;SDS011;62540;48.456;-4.456;2022-08-02T03:15:45;0.00;;;0.00;;
74177;SDS011;62540;48.456;-4.456;2022-08-02T03:21:09;0.00;;;0.00;;
74177;SDS011;62540;48.456;-4.456;2022-08-02T03:23:38;0.00;;;0.00;;
74177;SDS011;62540;48.456;-4.456;2022-08-02T03:26:06;1.75;;;1.00;;
74177;SDS011;62540;48.456;-4.456;2022-08-02T03:28:32;0.00;;;0.00;;
74177;SDS011;62540;48.456;-4.456;2022-08-02T03:30:57;0.00;;;0.00;;
74177;SDS011;62540;48.456;-4.456;2022-08-02T03:33:24;0.00;;;0.00;;
74177;SDS011;62540;48.456;-4.456;2022-08-02T03:35:51;0.00;;;0.00;;
74177;SDS011;62540;48.456;-4.456;2022-08-02T03:38:20;0.00;;;0.00;;
74177;SDS011;62540;48.456;-4.456;2022-08-02T03:40:47;0.00;;;0.00;;
74177;SDS011;62540;48.456;-4.456;2022-08-02T03:43:15;0.00;;;0.00;;
74177;SDS011;62540;48.456;-4.456;2022-08-02T03:45:42;0.00;;;0.00;;
74177;SDS011;62540;48.456;-4.456;2022-08-02T03:48:10;0.00;;;0.00;;
74177;SDS011;62540;48.456;-4.456;2022-08-02T03:50:37;0.00;;;0.00;;
74177;SDS011;62540;48.456;-4.456;2022-08-02T03:53:04;0.00;;;0.00;;
74177;SDS011;62540;48.456;-4.456;2022-08-02T03:55:30;0.00;;;0.00;;
74177;SDS011;62540;48.456;-4.456;2022-08-02T03:57:56;0.00;;;0.00;;
74177;SDS011;62540;48.456;-4.456;2022-08-02T04:00:22;0.00;;;0.00;;
74177;SDS011;62540;48.456;-4.456;2022-08-02T04:02:48;0.00;;;0.00;;
74177;SDS011;62540;48.456;-4.456;2022-08-02T04:05:16;0.00;;;0.00;;
74177;SDS011;62540;48.456;-4.456;2022-08-02T04:07:41;0.00;;;0.00;;
74177;SDS011;62540;48.456;-4.456;2022-08-02T04:10:10;0.00;;;0.00;;
74177;SDS011;62540;48.456;-4.456;2022-08-02T04:12:36;0.00;;;0.00;;
74177;SDS011;62540;48.456;-4.456;2022-08-02T04:15:05;0.00;;;0.00;;
74177;SDS011;62540;48.456;-4.456;2022-08-02T04:17:37;0.00;;;0.00;;
74177;SDS011;62540;48.456;-4.456;2022-08-02T04:20:07;0.00;;;0.00;;
74177;SDS011;62540;48.456;-4.456;2022-08-02T04:23:00;0.00;;;0.00;;
74177;SDS011;62540;48.456;-4.456;2022-08-02T04:25:30;0.00;;;0.00;;
74177;SDS011;62540;48.456;-4.456;2022-08-02T04:27:58;0.00;;;0.00;;
74177;SDS011;62540;48.456;-4.456;2022-08-02T04:30:24;0.00;;;0.00;;
74177;SDS011;62540;48.456;-4.456;2022-08-02T04:32:50;0.00;;;0.00;;
74177;SDS011;62540;48.456;-4.456;2022-08-02T04:35:16;0.00;;;0.00;;
74177;SDS011;62540;48.456;-4.456;2022-08-02T04:37:42;0.00;;;0.00;;
74177;SDS011;62540;48.456;-4.456;2022-08-02T04:40:11;0.00;;;0.00;;
74177;SDS011;62540;48.456;-4.456;2022-08-02T04:42:38;0.00;;;0.00;;
74177;SDS011;62540;48.456;-4.456;2022-08-02T04:45:07;0.00;;;0.00;;
74177;SDS011;62540;48.456;-4.456;2022-08-02T04:47:34;0.00;;;0.00;;
74177;SDS011;62540;48.456;-4.456;2022-08-02T04:49:59;0.00;;;0.00;;
74177;SDS011;62540;48.456;-4.456;2022-08-02T04:52:24;0.00;;;0.00;;
74177;SDS011;62540;48.456;-4.456;2022-08-02T04:54:50;0.00;;;0.00;;
74177;SDS011;62540;48.456;-4.456;2022-08-02T04:57:17;0.00;;;0.00;;
74177;SDS011;62540;48.456;-4.456;2022-08-02T05:00:02;0.25;;;0.00;;
74177;SDS011;62540;48.456;-4.456;2022-08-02T05:02:28;0.00;;;0.00;;
74177;SDS011;62540;48.456;-4.456;2022-08-02T05:04:54;0.00;;;0.00;;
74177;SDS011;62540;48.456;-4.456;2022-08-02T05:07:19;0.00;;;0.00;;
74177;SDS011;62540;48.456;-4.456;2022-08-02T05:09:44;0.00;;;0.00;;
74177;SDS011;62540;48.456;-4.456;2022-08-02T05:12:10;0.00;;;0.00;;
74177;SDS011;62540;48.456;-4.456;2022-08-02T05:14:35;0.00;;;0.00;;
74177;SDS011;62540;48.456;-4.456;2022-08-02T05:17:01;0.00;;;0.00;;
74177;SDS011;62540;48.456;-4.456;2022-08-02T05:19:26;0.00;;;0.00;;
74177;SDS011;62540;48.456;-4.456;2022-08-02T05:21:51;0.00;;;0.00;;
74177;SDS011;62540;48.456;-4.456;2022-08-02T05:24:17;0.00;;;0.00;;
74177;SDS011;62540;48.456;-4.456;2022-08-02T05:26:42;0.00;;;0.00;;
74177;SDS011;62540;48.456;-4.456;2022-08-02T05:29:08;0.00;;;0.00;;
74177;SDS011;62540;48.456;-4.456;2022-08-02T05:31:33;0.00;;;0.00;;
74177;SDS011;62540;48.456;-4.456;2022-08-02T05:33:58;0.00;;;0.00;;
74177;SDS011;62540;48.456;-4.456;2022-08-02T05:36:24;0.00;;;0.00;;
74177;SDS011;62540;48.456;-4.456;2022-08-02T05:38:49;0.00;;;0.00;;
74177;SDS011;62540;48.456;-4.456;2022-08-02T05:41:16;0.00;;;0.00;;
74177;SDS011;62540;48.456;-4.456;2022-08-02T05:43:43;0.00;;;0.00;;
74177;SDS011;62540;48.456;-4.456;2022-08-02T05:46:09;0.00;;;0.00;;
74177;SDS011;62540;48.456;-4.456;2022-08-02T05:48:34;0.00;;;0.00;;
74177;SDS011;62540;48.456;-4.456;2022-08-02T05:51:10;0.00;;;0.00;;
74177;SDS011;62540;48.456;-4.456;2022-08-02T05:53:44;0.00;;;0.00;;
74177;SDS011;62540;48.456;-4.456;2022-08-02T05:56:33;0.00;;;0.00;;
74177;SDS011;62540;48.456;-4.456;2022-08-02T06:01:50;0.00;;;0.00;;
74177;SDS011;62540;48.456;-4.456;2022-08-02T06:04:23;0.00;;;0.00;;
74177;SDS011;62540;48.456;-4.456;2022-08-02T06:06:51;0.00;;;0.00;;
74177;SDS011;62540;48.456;-4.456;2022-08-02T06:09:20;0.00;;;0.00;;
74177;SDS011;62540;48.456;-4.456;2022-08-02T06:11:49;0.00;;;0.00;;
74177;SDS011;62540;48.456;-4.456;2022-08-02T06:14:16;0.00;;;0.00;;
74177;SDS011;62540;48.456;-4.456;2022-08-02T06:16:42;0.00;;;0.00;;
74177;SDS011;62540;48.456;-4.456;2022-08-02T06:19:10;0.00;;;0.00;;
74177;SDS011;62540;48.456;-4.456;2022-08-02T06:21:38;0.00;;;0.00;;
74177;SDS011;62540;48.456;-4.456;2022-08-02T06:24:05;0.00;;;0.00;;
74177;SDS011;62540;48.456;-4.456;2022-08-02T06:26:33;0.00;;;0.00;;
74177;SDS011;62540;48.456;-4.456;2022-08-02T06:29:01;0.00;;;0.00;;
74177;SDS011;62540;48.456;-4.456;2022-08-02T06:31:27;0.00;;;0.00;;
74177;SDS011;62540;48.456;-4.456;2022-08-02T06:33:53;0.00;;;0.00;;
74177;SDS011;62540;48.456;-4.456;2022-08-02T06:36:34;0.00;;;0.00;;
74177;SDS011;62540;48.456;-4.456;2022-08-02T06:39:07;0.00;;;0.00;;
74177;SDS011;62540;48.456;-4.456;2022-08-02T06:41:48;0.00;;;0.00;;
74177;SDS011;62540;48.456;-4.456;2022-08-02T06:44:15;0.00;;;0.00;;
74177;SDS011;62540;48.456;-4.456;2022-08-02T06:46:41;0.00;;;0.00;;
74177;SDS011;62540;48.456;-4.456;2022-08-02T06:49:06;0.00;;;0.00;;
74177;SDS011;62540;48.456;-4.456;2022-08-02T06:51:32;0.00;;;0.00;;
74177;SDS011;62540;48.456;-4.456;2022-08-02T06:53:58;0.00;;;0.00;;
74177;SDS011;62540;48.456;-4.456;2022-08-02T06:56:23;0.00;;;0.00;;
74177;SDS011;62540;48.456;-4.456;2022-08-02T06:58:49;0.00;;;0.00;;
74177;SDS011;62540;48.456;-4.456;2022-08-02T07:01:14;0.00;;;0.00;;
74177;SDS011;62540;48.456;-4.456;2022-08-02T07:03:42;0.00;;;0.00;;
74177;SDS011;62540;48.456;-4.456;2022-08-02T07:06:07;0.00;;;0.00;;
74177;SDS011;62540;48.456;-4.456;2022-08-02T07:08:33;0.00;;;0.00;;
74177;SDS011;62540;48.456;-4.456;2022-08-02T07:11:02;0.00;;;0.00;;
74177;SDS011;62540;48.456;-4.456;2022-08-02T07:13:28;0.00;;;0.00;;
74177;SDS011;62540;48.456;-4.456;2022-08-02T07:15:54;0.00;;;0.00;;
74177;SDS011;62540;48.456;-4.456;2022-08-02T07:18:20;0.00;;;0.00;;
74177;SDS011;62540;48.456;-4.456;2022-08-02T07:20:46;0.00;;;0.00;;
74177;SDS011;62540;48.456;-4.456;2022-08-02T07:23:12;0.00;;;0.00;;
74177;SDS011;62540;48.456;-4.456;2022-08-02T07:25:37;0.00;;;0.00;;
74177;SDS011;62540;48.456;-4.456;2022-08-02T07:28:04;0.00;;;0.00;;
74177;SDS011;62540;48.456;-4.456;2022-08-02T07:30:30;0.00;;;0.00;;
74177;SDS011;62540;48.456;-4.456;2022-08-02T07:32:57;0.00;;;0.00;;
74177;SDS011;62540;48.456;-4.456;2022-08-02T07:35:23;0.00;;;0.00;;
74177;SDS011;62540;48.456;-4.456;2022-08-02T07:37:49;0.00;;;0.00;;
74177;SDS011;62540;48.456;-4.456;2022-08-02T07:40:14;0.00;;;0.00;;
74177;SDS011;62540;48.456;-4.456;2022-08-02T07:42:41;0.00;;;0.00;;
74177;SDS011;62540;48.456;-4.456;2022-08-02T07:45:07;0.00;;;0.00;;
74177;SDS011;62540;48.456;-4.456;2022-08-02T07:47:36;0.00;;;0.00;;
74177;SDS011;62540;48.456;-4.456;2022-08-02T07:50:02;0.00;;;0.00;;
74177;SDS011;62540;48.456;-4.456;2022-08-02T07:52:28;0.00;;;0.00;;
74177;SDS011;62540;48.456;-4.456;2022-08-02T07:54:54;0.00;;;0.00;;
74177;SDS011;62540;48.456;-4.456;2022-08-02T07:57:19;0.50;;;0.50;;
74177;SDS011;62540;48.456;-4.456;2022-08-02T07:59:45;0.00;;;0.00;;
74177;SDS011;62540;48.456;-4.456;2022-08-02T08:02:12;0.00;;;0.00;;
74177;SDS011;62540;48.456;-4.456;2022-08-02T08:04:38;0.00;;;0.00;;
74177;SDS011;62540;48.456;-4.456;2022-08-02T08:07:04;0.00;;;0.00;;
74177;SDS011;62540;48.456;-4.456;2022-08-02T08:09:31;1.00;;;0.00;;
74177;SDS011;62540;48.456;-4.456;2022-08-02T08:11:57;0.00;;;0.00;;
74177;SDS011;62540;48.456;-4.456;2022-08-02T08:14:22;0.25;;;0.00;;
74177;SDS011;62540;48.456;-4.456;2022-08-02T08:16:47;0.00;;;0.00;;
74177;SDS011;62540;48.456;-4.456;2022-08-02T08:19:13;0.00;;;0.00;;
74177;SDS011;62540;48.456;-4.456;2022-08-02T08:21:38;0.00;;;0.00;;
74177;SDS011;62540;48.456;-4.456;2022-08-02T08:24:04;1.00;;;0.00;;
74177;SDS011;62540;48.456;-4.456;2022-08-02T08:26:29;0.00;;;0.00;;
74177;SDS011;62540;48.456;-4.456;2022-08-02T08:28:55;0.00;;;0.00;;
74177;SDS011;62540;48.456;-4.456;2022-08-02T08:31:20;0.00;;;0.00;;
74177;SDS011;62540;48.456;-4.456;2022-08-02T08:33:45;0.00;;;0.00;;
74177;SDS011;62540;48.456;-4.456;2022-08-02T08:36:11;0.00;;;0.00;;
74177;SDS011;62540;48.456;-4.456;2022-08-02T08:38:36;0.00;;;0.00;;
74177;SDS011;62540;48.456;-4.456;2022-08-02T08:41:02;0.00;;;0.00;;
74177;SDS011;62540;48.456;-4.456;2022-08-02T08:43:27;1.00;;;0.00;;
74177;SDS011;62540;48.456;-4.456;2022-08-02T08:45:52;0.00;;;0.00;;
74177;SDS011;62540;48.456;-4.456;2022-08-02T08:48:18;0.00;;;0.00;;
74177;SDS011;62540;48.456;-4.456;2022-08-02T08:50:52;0.00;;;0.00;;
74177;SDS011;62540;48.456;-4.456;2022-08-02T08:53:20;0.00;;;0.00;;
74177;SDS011;62540;48.456;-4.456;2022-08-02T08:55:47;1.00;;;0.00;;
74177;SDS011;62540;48.456;-4.456;2022-08-02T08:58:16;0.00;;;0.00;;
74177;SDS011;62540;48.456;-4.456;2022-08-02T09:00:42;0.00;;;0.00;;
74177;SDS011;62540;48.456;-4.456;2022-08-02T09:03:07;0.00;;;0.00;;
74177;SDS011;62540;48.456;-4.456;2022-08-02T09:05:34;0.00;;;0.00;;
74177;SDS011;62540;48.456;-4.456;2022-08-02T09:08:00;0.00;;;0.00;;
74177;SDS011;62540;48.456;-4.456;2022-08-02T09:10:36;0.00;;;0.00;;
74177;SDS011;62540;48.456;-4.456;2022-08-02T09:13:15;0.00;;;0.00;;
74177;SDS011;62540;48.456;-4.456;2022-08-02T09:15:45;1.00;;;0.00;;
74177;SDS011;62540;48.456;-4.456;2022-08-02T09:18:17;0.00;;;0.00;;
74177;SDS011;62540;48.456;-4.456;2022-08-02T09:23:17;0.00;;;0.00;;
74177;SDS011;62540;48.456;-4.456;2022-08-02T09:25:59;0.00;;;0.00;;
74177;SDS011;62540;48.456;-4.456;2022-08-02T09:28:32;0.00;;;0.00;;
74177;SDS011;62540;48.456;-4.456;2022-08-02T09:31:05;0.00;;;0.00;;
74177;SDS011;62540;48.456;-4.456;2022-08-02T09:33:33;0.00;;;0.00;;
74177;SDS011;62540;48.456;-4.456;2022-08-02T09:36:04;0.00;;;0.00;;
74177;SDS011;62540;48.456;-4.456;2022-08-02T09:38:35;0.25;;;0.00;;
74177;SDS011;62540;48.456;-4.456;2022-08-02T09:41:01;0.50;;;0.50;;
74177;SDS011;62540;48.456;-4.456;2022-08-02T09:43:35;1.75;;;1.00;;
74177;SDS011;62540;48.456;-4.456;2022-08-02T09:46:08;0.00;;;0.00;;
74177;SDS011;62540;48.456;-4.456;2022-08-02T09:48:58;1.00;;;1.00;;
74177;SDS011;62540;48.456;-4.456;2022-08-02T09:51:29;0.50;;;0.50;;
74177;SDS011;62540;48.456;-4.456;2022-08-02T09:53:57;0.00;;;0.00;;
74177;SDS011;62540;48.456;-4.456;2022-08-02T09:56:24;0.00;;;0.00;;
74177;SDS011;62540;48.456;-4.456;2022-08-02T09:58:51;1.25;;;1.00;;
74177;SDS011;62540;48.456;-4.456;2022-08-02T10:01:17;1.00;;;1.00;;
74177;SDS011;62540;48.456;-4.456;2022-08-02T10:03:52;0.75;;;0.75;;
74177;SDS011;62540;48.456;-4.456;2022-08-02T10:06:19;1.00;;;1.00;;
74177;SDS011;62540;48.456;-4.456;2022-08-02T10:08:45;1.00;;;1.00;;
74177;SDS011;62540;48.456;-4.456;2022-08-02T10:11:11;8.25;;;7.50;;
74177;SDS011;62540;48.456;-4.456;2022-08-02T10:13:37;9.25;;;7.75;;
74177;SDS011;62540;48.456;-4.456;2022-08-02T10:16:03;4.00;;;4.00;;
74177;SDS011;62540;48.456;-4.456;2022-08-02T10:18:31;5.00;;;3.00;;
74177;SDS011;62540;48.456;-4.456;2022-08-02T10:20:57;0.75;;;0.75;;
74177;SDS011;62540;48.456;-4.456;2022-08-02T10:23:26;1.00;;;1.00;;
74177;SDS011;62540;48.456;-4.456;2022-08-02T10:25:57;0.75;;;0.50;;
74177;SDS011;62540;48.456;-4.456;2022-08-02T10:28:27;0.00;;;0.00;;
74177;SDS011;62540;48.456;-4.456;2022-08-02T10:30:57;1.00;;;0.00;;
74177;SDS011;62540;48.456;-4.456;2022-08-02T10:33:26;0.50;;;0.50;;
74177;SDS011;62540;48.456;-4.456;2022-08-02T10:35:54;0.00;;;0.00;;
74177;SDS011;62540;48.456;-4.456;2022-08-02T10:38:22;1.25;;;0.00;;
74177;SDS011;62540;48.456;-4.456;2022-08-02T10:40:49;0.00;;;0.00;;
74177;SDS011;62540;48.456;-4.456;2022-08-02T10:49:00;1.00;;;1.00;;
74177;SDS011;62540;48.456;-4.456;2022-08-02T10:54:19;1.25;;;0.75;;
74177;SDS011;62540;48.456;-4.456;2022-08-02T10:56:49;0.00;;;0.00;;
74177;SDS011;62540;48.456;-4.456;2022-08-02T11:01:56;0.00;;;0.00;;
74177;SDS011;62540;48.456;-4.456;2022-08-02T11:09:45;0.50;;;0.50;;
74177;SDS011;62540;48.456;-4.456;2022-08-02T11:12:15;0.00;;;0.00;;
74177;SDS011;62540;48.456;-4.456;2022-08-02T11:14:44;0.50;;;0.50;;
74177;SDS011;62540;48.456;-4.456;2022-08-02T11:20:30;0.00;;;0.00;;
74177;SDS011;62540;48.456;-4.456;2022-08-02T11:22:57;1.50;;;0.00;;
74177;SDS011;62540;48.456;-4.456;2022-08-02T11:26:00;1.00;;;1.00;;
74177;SDS011;62540;48.456;-4.456;2022-08-02T11:28:29;0.00;;;0.00;;
74177;SDS011;62540;48.456;-4.456;2022-08-02T11:30:59;1.00;;;1.00;;
74177;SDS011;62540;48.456;-4.456;2022-08-02T11:33:29;1.00;;;1.00;;
74177;SDS011;62540;48.456;-4.456;2022-08-02T11:35:59;1.00;;;1.00;;
74177;SDS011;62540;48.456;-4.456;2022-08-02T11:38:26;0.00;;;0.00;;
74177;SDS011;62540;48.456;-4.456;2022-08-02T11:40:51;0.50;;;0.50;;
74177;SDS011;62540;48.456;-4.456;2022-08-02T11:45:43;1.00;;;1.00;;
74177;SDS011;62540;48.456;-4.456;2022-08-02T11:48:09;0.50;;;0.50;;
74177;SDS011;62540;48.456;-4.456;2022-08-02T11:50:34;0.75;;;0.75;;
74177;SDS011;62540;48.456;-4.456;2022-08-02T11:52:59;1.00;;;1.00;;
74177;SDS011;62540;48.456;-4.456;2022-08-02T11:55:28;2.25;;;2.00;;
74177;SDS011;62540;48.456;-4.456;2022-08-02T11:57:58;1.00;;;1.00;;
74177;SDS011;62540;48.456;-4.456;2022-08-02T12:00:25;0.75;;;0.75;;
74177;SDS011;62540;48.456;-4.456;2022-08-02T12:02:51;0.00;;;0.00;;
74177;SDS011;62540;48.456;-4.456;2022-08-02T12:05:18;1.00;;;0.00;;
74177;SDS011;62540;48.456;-4.456;2022-08-02T12:07:48;1.00;;;1.00;;
74177;SDS011;62540;48.456;-4.456;2022-08-02T12:10:16;1.00;;;1.00;;
74177;SDS011;62540;48.456;-4.456;2022-08-02T12:18:02;0.00;;;0.00;;
74177;SDS011;62540;48.456;-4.456;2022-08-02T12:20:51;0.00;;;0.00;;
74177;SDS011;62540;48.456;-4.456;2022-08-02T12:23:17;2.00;;;0.00;;
74177;SDS011;62540;48.456;-4.456;2022-08-02T12:25:42;1.00;;;0.00;;
74177;SDS011;62540;48.456;-4.456;2022-08-02T12:28:15;0.00;;;0.00;;
74177;SDS011;62540;48.456;-4.456;2022-08-02T12:30:54;0.00;;;0.00;;
74177;SDS011;62540;48.456;-4.456;2022-08-02T12:33:23;0.00;;;0.00;;
74177;SDS011;62540;48.456;-4.456;2022-08-02T12:35:52;0.00;;;0.00;;
74177;SDS011;62540;48.456;-4.456;2022-08-02T12:38:18;0.00;;;0.00;;
74177;SDS011;62540;48.456;-4.456;2022-08-02T12:40:44;0.50;;;0.50;;
74177;SDS011;62540;48.456;-4.456;2022-08-02T12:43:23;1.00;;;0.00;;
74177;SDS011;62540;48.456;-4.456;2022-08-02T12:45:50;0.00;;;0.00;;
74177;SDS011;62540;48.456;-4.456;2022-08-02T12:48:28;0.00;;;0.00;;
74177;SDS011;62540;48.456;-4.456;2022-08-02T12:51:12;0.00;;;0.00;;
74177;SDS011;62540;48.456;-4.456;2022-08-02T12:53:48;0.50;;;0.00;;
74177;SDS011;62540;48.456;-4.456;2022-08-02T12:56:30;0.00;;;0.00;;
74177;SDS011;62540;48.456;-4.456;2022-08-02T12:58:58;0.75;;;0.00;;
74177;SDS011;62540;48.456;-4.456;2022-08-02T13:01:25;0.00;;;0.00;;
74177;SDS011;62540;48.456;-4.456;2022-08-02T13:03:52;0.00;;;0.00;;
74177;SDS011;62540;48.456;-4.456;2022-08-02T13:06:19;0.00;;;0.00;;
74177;SDS011;62540;48.456;-4.456;2022-08-02T13:08:45;0.00;;;0.00;;
74177;SDS011;62540;48.456;-4.456;2022-08-02T13:11:11;0.25;;;0.00;;
74177;SDS011;62540;48.456;-4.456;2022-08-02T13:13:36;0.00;;;0.00;;
74177;SDS011;62540;48.456;-4.456;2022-08-02T13:16:02;0.00;;;0.00;;
74177;SDS011;62540;48.456;-4.456;2022-08-02T13:18:27;0.00;;;0.00;;
74177;SDS011;62540;48.456;-4.456;2022-08-02T13:20:53;0.00;;;0.00;;
74177;SDS011;62540;48.456;-4.456;2022-08-02T13:23:18;0.00;;;0.00;;
74177;SDS011;62540;48.456;-4.456;2022-08-02T13:25:44;0.00;;;0.00;;
74177;SDS011;62540;48.456;-4.456;2022-08-02T13:28:09;0.00;;;0.00;;
74177;SDS011;62540;48.456;-4.456;2022-08-02T13:30:35;0.00;;;0.00;;
74177;SDS011;62540;48.456;-4.456;2022-08-02T13:33:01;0.00;;;0.00;;
74177;SDS011;62540;48.456;-4.456;2022-08-02T13:35:26;0.00;;;0.00;;
74177;SDS011;62540;48.456;-4.456;2022-08-02T13:37:52;0.00;;;0.00;;
74177;SDS011;62540;48.456;-4.456;2022-08-02T13:40:17;0.00;;;0.00;;
74177;SDS011;62540;48.456;-4.456;2022-08-02T13:42:43;0.00;;;0.00;;
74177;SDS011;62540;48.456;-4.456;2022-08-02T13:45:08;0.00;;;0.00;;
74177;SDS011;62540;48.456;-4.456;2022-08-02T13:47:36;0.00;;;0.00;;
74177;SDS011;62540;48.456;-4.456;2022-08-02T13:50:03;0.00;;;0.00;;
74177;SDS011;62540;48.456;-4.456;2022-08-02T13:52:30;0.00;;;0.00;;
74177;SDS011;62540;48.456;-4.456;2022-08-02T13:54:55;0.00;;;0.00;;
74177;SDS011;62540;48.456;-4.456;2022-08-02T13:57:20;0.00;;;0.00;;
74177;SDS011;62540;48.456;-4.456;2022-08-02T13:59:46;0.00;;;0.00;;
74177;SDS011;62540;48.456;-4.456;2022-08-02T14:02:11;0.00;;;0.00;;
74177;SDS011;62540;48.456;-4.456;2022-08-02T14:04:37;0.00;;;0.00;;
74177;SDS011;62540;48.456;-4.456;2022-08-02T14:07:03;0.00;;;0.00;;
74177;SDS011;62540;48.456;-4.456;2022-08-02T14:09:28;0.00;;;0.00;;
74177;SDS011;62540;48.456;-4.456;2022-08-02T14:11:56;0.00;;;0.00;;
74177;SDS011;62540;48.456;-4.456;2022-08-02T14:14:22;0.00;;;0.00;;
74177;SDS011;62540;48.456;-4.456;2022-08-02T14:16:48;0.00;;;0.00;;
74177;SDS011;62540;48.456;-4.456;2022-08-02T14:19:14;0.00;;;0.00;;
74177;SDS011;62540;48.456;-4.456;2022-08-02T14:21:39;0.00;;;0.00;;
74177;SDS011;62540;48.456;-4.456;2022-08-02T14:24:04;1.00;;;0.00;;
74177;SDS011;62540;48.456;-4.456;2022-08-02T14:26:30;0.00;;;0.00;;
74177;SDS011;62540;48.456;-4.456;2022-08-02T14:28:55;0.00;;;0.00;;
74177;SDS011;62540;48.456;-4.456;2022-08-02T14:31:21;0.00;;;0.00;;
74177;SDS011;62540;48.456;-4.456;2022-08-02T14:33:46;0.00;;;0.00;;
74177;SDS011;62540;48.456;-4.456;2022-08-02T14:36:12;0.00;;;0.00;;
74177;SDS011;62540;48.456;-4.456;2022-08-02T14:38:37;0.00;;;0.00;;
74177;SDS011;62540;48.456;-4.456;2022-08-02T14:41:02;0.00;;;0.00;;
74177;SDS011;62540;48.456;-4.456;2022-08-02T14:43:28;0.00;;;0.00;;
74177;SDS011;62540;48.456;-4.456;2022-08-02T14:46:12;0.75;;;0.00;;
74177;SDS011;62540;48.456;-4.456;2022-08-02T14:48:37;0.00;;;0.00;;
74177;SDS011;62540;48.456;-4.456;2022-08-02T14:51:03;0.00;;;0.00;;
74177;SDS011;62540;48.456;-4.456;2022-08-02T14:53:31;0.00;;;0.00;;
74177;SDS011;62540;48.456;-4.456;2022-08-02T14:55:56;0.00;;;0.00;;
74177;SDS011;62540;48.456;-4.456;2022-08-02T14:58:22;0.00;;;0.00;;
74177;SDS011;62540;48.456;-4.456;2022-08-02T15:00:47;0.00;;;0.00;;
74177;SDS011;62540;48.456;-4.456;2022-08-02T15:03:12;0.00;;;0.00;;
74177;SDS011;62540;48.456;-4.456;2022-08-02T15:05:38;0.00;;;0.00;;
74177;SDS011;62540;48.456;-4.456;2022-08-02T15:08:04;0.00;;;0.00;;
74177;SDS011;62540;48.456;-4.456;2022-08-02T15:10:29;0.00;;;0.00;;
74177;SDS011;62540;48.456;-4.456;2022-08-02T15:12:55;0.00;;;0.00;;
74177;SDS011;62540;48.456;-4.456;2022-08-02T15:15:20;0.00;;;0.00;;
74177;SDS011;62540;48.456;-4.456;2022-08-02T15:17:46;0.75;;;0.75;;
74177;SDS011;62540;48.456;-4.456;2022-08-02T15:20:11;0.00;;;0.00;;
74177;SDS011;62540;48.456;-4.456;2022-08-02T15:22:36;0.00;;;0.00;;
74177;SDS011;62540;48.456;-4.456;2022-08-02T15:25:02;0.00;;;0.00;;
74177;SDS011;62540;48.456;-4.456;2022-08-02T15:27:27;0.00;;;0.00;;
74177;SDS011;62540;48.456;-4.456;2022-08-02T15:29:53;0.00;;;0.00;;